createdAt,value
2018-11-10T00:02:26.160Z,96004.05
2018-11-10T00:04:54.613Z,95999.91
2018-11-10T00:07:23.125Z,95996.92
2018-11-10T00:09:51.418Z,95993.97
2018-11-10T00:12:19.754Z,95990.83
2018-11-10T00:14:48.170Z,95991.50
2018-11-10T00:17:16.518Z,95981.74
2018-11-10T00:19:44.893Z,95979.75
2018-11-10T00:22:13.314Z,95978.13
2018-11-10T00:24:41.758Z,95973.96
2018-11-10T00:27:10.038Z,95970.34
2018-11-10T00:29:38.442Z,95978.09
2018-11-10T00:32:07.454Z,95968.83
2018-11-10T00:34:35.907Z,95982.32
2018-11-10T00:37:04.517Z,95973.92
2018-11-10T00:39:32.977Z,95972.43
2018-11-10T00:42:01.267Z,95966.47
2018-11-10T00:44:29.689Z,95961.66
2018-11-10T00:46:58.001Z,95973.24
2018-11-10T00:49:26.397Z,95962.03
2018-11-10T00:51:54.773Z,95956.41
2018-11-10T00:54:23.909Z,95954.77
2018-11-10T00:56:52.217Z,95956.41
2018-11-10T00:59:20.866Z,95958.23
2018-11-10T01:01:49.373Z,95953.45
2018-11-10T01:04:17.757Z,95952.78
2018-11-10T01:06:46.241Z,95952.27
2018-11-10T01:09:14.606Z,95950.45
2018-11-10T01:11:43.086Z,95946.98
2018-11-10T01:14:11.502Z,95937.91
2018-11-10T01:16:40.048Z,95945.19
2018-11-10T01:19:08.365Z,95939.77
2018-11-10T01:21:36.722Z,95950.50
2018-11-10T01:24:05.243Z,95945.55
2018-11-10T01:26:33.698Z,95946.03
2018-11-10T01:29:02.164Z,95946.87
2018-11-10T01:31:37.170Z,95948.20
2018-11-10T01:34:05.675Z,95945.35
2018-11-10T01:36:34.057Z,95951.80
2018-11-10T01:39:05.081Z,95943.55
2018-11-10T01:41:33.385Z,95934.95
2018-11-10T01:44:01.925Z,95933.30
2018-11-10T01:46:30.866Z,95937.77
2018-11-10T01:48:59.649Z,95930.00
2018-11-10T01:51:27.957Z,95924.55
2018-11-10T01:53:57.177Z,95926.19
2018-11-10T01:56:25.506Z,95926.69
2018-11-10T01:58:53.890Z,95926.19
2018-11-10T02:01:22.931Z,95922.22
2018-11-10T02:03:51.252Z,95918.63
2018-11-10T02:06:19.526Z,95917.98
2018-11-10T02:08:47.862Z,95918.48
2018-11-10T02:11:16.394Z,95921.13
2018-11-10T02:13:44.686Z,95914.52
2018-11-10T02:16:13.007Z,95916.31
2018-11-10T02:18:41.346Z,95912.69
2018-11-10T02:21:09.839Z,95904.77
2018-11-10T02:23:38.170Z,95903.92
2018-11-10T02:26:06.541Z,95899.63
2018-11-10T02:28:34.937Z,95898.16
2018-11-10T02:31:03.938Z,95902.30
2018-11-10T02:33:32.374Z,95904.12
2018-11-10T02:36:00.641Z,95905.44
2018-11-10T02:38:28.975Z,95909.71
2018-11-10T02:40:57.719Z,95901.31
2018-11-10T02:43:26.099Z,95897.34
2018-11-10T02:45:54.375Z,95896.19
2018-11-10T02:48:22.820Z,95901.64
2018-11-10T02:50:51.206Z,95900.49
2018-11-10T02:53:19.502Z,95892.23
2018-11-10T02:55:47.950Z,95892.54
2018-11-10T02:58:16.268Z,95897.34
2018-11-10T03:00:44.568Z,95894.70
2018-11-10T03:03:12.947Z,95895.34
2018-11-10T03:05:41.381Z,95891.39
2018-11-10T03:08:09.673Z,95891.22
2018-11-10T03:10:38.507Z,95896.19
2018-11-10T03:13:06.834Z,95892.40
2018-11-10T03:15:35.094Z,95897.98
2018-11-10T03:18:03.440Z,95889.76
2018-11-10T03:20:31.738Z,95889.92
2018-11-10T03:23:00.079Z,95887.45
2018-11-10T03:25:28.396Z,95885.85
2018-11-10T03:27:56.970Z,95890.48
2018-11-10T03:30:25.287Z,95882.73
2018-11-10T03:32:53.686Z,95889.00
2018-11-10T03:35:21.971Z,95879.75
2018-11-10T03:37:50.422Z,95889.00
2018-11-10T03:40:18.826Z,95890.52
2018-11-10T03:42:47.112Z,95886.38
2018-11-10T03:45:15.510Z,95885.71
2018-11-10T03:47:43.845Z,95886.05
2018-11-10T03:50:12.598Z,95882.09
2018-11-10T03:52:41.091Z,95881.75
2018-11-10T03:55:10.510Z,95882.76
2018-11-10T03:57:38.824Z,95875.98
2018-11-10T04:00:10.680Z,95878.83
2018-11-10T04:02:39.594Z,95877.67
2018-11-10T04:05:08.706Z,95879.02
2018-11-10T04:07:37.114Z,95876.20
2018-11-10T04:10:05.937Z,95874.58
2018-11-10T04:12:34.571Z,95878.39
2018-11-10T04:15:03.250Z,95877.41
2018-11-10T04:17:32.316Z,95876.73
2018-11-10T04:20:00.605Z,95873.93
2018-11-10T04:22:33.515Z,95869.16
2018-11-10T04:25:02.747Z,95871.11
2018-11-10T04:27:31.490Z,95875.75
2018-11-10T04:30:00.046Z,95866.51
2018-11-10T04:32:28.458Z,95869.52
2018-11-10T04:34:56.718Z,95869.34
2018-11-10T04:37:25.779Z,95866.25
2018-11-10T04:39:54.622Z,95865.09
2018-11-10T04:42:22.890Z,95866.41
2018-11-10T04:44:51.354Z,95866.41
2018-11-10T04:47:19.654Z,95857.03
2018-11-10T04:49:48.639Z,95856.35
2018-11-10T04:52:17.070Z,95856.05
2018-11-10T04:54:45.422Z,95852.39
2018-11-10T04:57:13.793Z,95857.36
2018-11-10T04:59:42.266Z,95852.08
2018-11-10T05:02:10.653Z,95844.50
2018-11-10T05:04:39.031Z,95849.13
2018-11-10T05:07:07.422Z,95858.70
2018-11-10T05:09:35.773Z,95864.49
2018-11-10T05:12:05.059Z,95860.36
2018-11-10T05:14:33.502Z,95861.03
2018-11-10T05:17:01.846Z,95861.70
2018-11-10T05:19:30.809Z,95864.50
2018-11-10T05:21:59.970Z,95861.05
2018-11-10T05:24:28.242Z,95855.61
2018-11-10T05:26:56.582Z,95861.39
2018-11-10T05:29:24.902Z,95859.22
2018-11-10T05:31:53.314Z,95857.76
2018-11-10T05:34:21.702Z,95857.61
2018-11-10T05:36:50.298Z,95859.41
2018-11-10T05:39:18.678Z,95863.73
2018-11-10T05:41:46.953Z,95867.52
2018-11-10T05:44:15.244Z,95858.94
2018-11-10T05:46:44.018Z,95863.55
2018-11-10T05:49:12.414Z,95866.83
2018-11-10T05:51:41.341Z,95861.72
2018-11-10T05:54:09.673Z,95861.38
2018-11-10T05:56:38.046Z,95862.24
2018-11-10T05:59:06.658Z,95861.76
2018-11-10T06:01:35.010Z,95862.59
2018-11-10T06:04:03.462Z,95862.75
2018-11-10T06:06:31.866Z,95868.20
2018-11-10T06:09:00.273Z,95863.59
2018-11-10T06:11:28.624Z,95862.44
2018-11-10T06:13:56.918Z,95861.44
2018-11-10T06:16:25.894Z,95863.09
2018-11-10T06:18:54.449Z,95868.68
2018-11-10T06:21:22.778Z,95860.28
2018-11-10T06:23:51.046Z,95861.60
2018-11-10T06:26:19.503Z,95862.75
2018-11-10T06:28:47.836Z,95869.33
2018-11-10T06:31:16.171Z,95864.56
2018-11-10T06:33:44.642Z,95868.02
2018-11-10T06:36:13.982Z,95865.73
2018-11-10T06:38:42.312Z,95872.33
2018-11-10T06:41:10.745Z,95874.97
2018-11-10T06:43:39.118Z,95878.26
2018-11-10T06:46:07.416Z,95874.30
2018-11-10T06:48:35.743Z,95873.94
2018-11-10T06:51:04.163Z,95868.64
2018-11-10T06:53:32.426Z,95866.66
2018-11-10T06:56:00.766Z,95871.30
2018-11-10T06:58:29.179Z,95865.03
2018-11-10T07:00:57.547Z,95867.02
2018-11-10T07:03:26.482Z,95870.16
2018-11-10T07:05:54.846Z,95868.84
2018-11-10T07:08:23.106Z,95869.31
2018-11-10T07:10:51.514Z,95869.17
2018-11-10T07:13:19.848Z,95862.73
2018-11-10T07:15:48.202Z,95865.36
2018-11-10T07:18:17.032Z,95858.42
2018-11-10T07:20:45.423Z,95861.55
2018-11-10T07:23:13.763Z,95866.16
2018-11-10T07:25:42.550Z,95857.42
2018-11-10T07:28:11.012Z,95857.91
2018-11-10T07:30:40.337Z,95864.03
2018-11-10T07:33:08.712Z,95855.09
2018-11-10T07:35:37.019Z,95848.34
2018-11-10T07:38:05.363Z,95843.37
2018-11-10T07:40:34.738Z,95840.58
2018-11-10T07:43:03.081Z,95843.39
2018-11-10T07:45:31.494Z,95843.89
2018-11-10T07:47:59.798Z,95843.89
2018-11-10T07:50:28.184Z,95839.45
2018-11-10T07:52:57.146Z,95836.30
2018-11-10T07:55:25.544Z,95841.77
2018-11-10T07:57:53.965Z,95837.94
2018-11-10T08:00:22.411Z,95834.63
2018-11-10T08:02:50.698Z,95836.94
2018-11-10T08:05:19.002Z,95838.74
2018-11-10T08:07:47.438Z,95831.95
2018-11-10T08:10:16.311Z,95828.64
2018-11-10T08:12:44.804Z,95831.92
2018-11-10T08:15:14.342Z,95832.07
2018-11-10T08:17:42.684Z,95823.47
2018-11-10T08:20:11.754Z,95826.76
2018-11-10T08:22:40.043Z,95820.30
2018-11-10T08:25:10.611Z,95827.41
2018-11-10T08:27:39.158Z,95829.54
2018-11-10T08:30:09.344Z,95822.27
2018-11-10T08:32:37.747Z,95822.27
2018-11-10T08:35:07.333Z,95828.20
2018-11-10T08:37:35.638Z,95817.91
2018-11-10T08:40:03.915Z,95816.77
2018-11-10T08:42:32.480Z,95814.73
2018-11-10T08:45:00.989Z,95819.51
2018-11-10T08:47:29.388Z,95812.09
2018-11-10T08:49:57.778Z,95811.89
2018-11-10T08:52:26.087Z,95815.65
2018-11-10T08:54:54.371Z,95811.44
2018-11-10T08:57:22.696Z,95817.98
2018-11-10T08:59:50.949Z,95813.84
2018-11-10T09:02:19.232Z,95818.58
2018-11-10T09:04:48.062Z,95814.20
2018-11-10T09:07:16.403Z,95815.05
2018-11-10T09:09:44.808Z,95818.70
2018-11-10T09:12:13.171Z,95814.77
2018-11-10T09:14:41.534Z,95820.88
2018-11-10T09:17:09.839Z,95811.41
2018-11-10T09:19:38.219Z,95819.35
2018-11-10T09:22:07.426Z,95818.67
2018-11-10T09:24:36.106Z,95815.25
2018-11-10T09:27:04.447Z,95813.75
2018-11-10T09:29:33.454Z,95806.02
2018-11-10T09:32:01.755Z,95807.27
2018-11-10T09:34:30.066Z,95807.48
2018-11-10T09:36:58.473Z,95812.95
2018-11-10T09:39:26.863Z,95811.19
2018-11-10T09:41:55.410Z,95809.80
2018-11-10T09:44:23.718Z,95807.08
2018-11-10T09:46:52.102Z,95808.70
2018-11-10T09:49:20.517Z,95801.37
2018-11-10T09:51:48.853Z,95800.61
2018-11-10T09:54:17.226Z,95802.01
2018-11-10T09:56:45.651Z,95804.26
2018-11-10T09:59:14.158Z,95800.20
2018-11-10T10:01:42.614Z,95796.59
2018-11-10T10:04:11.534Z,95788.97
2018-11-10T10:06:40.352Z,95781.27
2018-11-10T10:09:09.981Z,95771.64
2018-11-10T10:11:38.798Z,95766.06
2018-11-10T10:14:08.112Z,95764.44
2018-11-10T10:16:36.435Z,95762.66
2018-11-10T10:19:05.606Z,95766.28
2018-11-10T10:21:34.080Z,95768.47
2018-11-10T10:24:02.393Z,95758.39
2018-11-10T10:26:30.876Z,95762.52
2018-11-10T10:29:00.120Z,95760.20
2018-11-10T10:31:28.361Z,95745.94
2018-11-10T10:33:56.766Z,95746.08
2018-11-10T10:36:25.198Z,95731.48
2018-11-10T10:38:53.881Z,95732.62
2018-11-10T10:41:22.439Z,95727.66
2018-11-10T10:43:50.758Z,95730.13
2018-11-10T10:46:19.441Z,95732.71
2018-11-10T10:48:48.086Z,95725.55
2018-11-10T10:51:16.904Z,95722.39
2018-11-10T10:53:45.561Z,95715.25
2018-11-10T10:56:14.190Z,95712.29
2018-11-10T10:58:42.442Z,95707.88
2018-11-10T11:01:16.260Z,95707.38
2018-11-10T11:03:49.830Z,95709.53
2018-11-10T11:06:18.287Z,95703.88
2018-11-10T11:08:46.933Z,95695.81
2018-11-10T11:11:15.189Z,95691.30
2018-11-10T11:13:43.709Z,95688.94
2018-11-10T11:16:11.998Z,95686.98
2018-11-10T11:18:40.339Z,95684.93
2018-11-10T11:21:08.914Z,95677.53
2018-11-10T11:23:37.505Z,95672.70
2018-11-10T11:26:06.323Z,95672.70
2018-11-10T11:28:34.675Z,95674.43
2018-11-10T11:31:03.077Z,95669.80
2018-11-10T11:33:31.361Z,95667.36
2018-11-10T11:35:59.822Z,95669.70
2018-11-10T11:38:28.265Z,95666.70
2018-11-10T11:40:56.718Z,95660.81
2018-11-10T11:43:25.561Z,95658.34
2018-11-10T11:45:53.938Z,95662.02
2018-11-10T11:48:22.293Z,95655.64
2018-11-10T11:50:50.910Z,95659.22
2018-11-10T11:53:19.197Z,95652.36
2018-11-10T11:55:47.550Z,95645.65
2018-11-10T11:58:15.952Z,95639.25
2018-11-10T12:00:44.406Z,95635.44
2018-11-10T12:03:12.784Z,95629.51
2018-11-10T12:05:41.410Z,95640.31
2018-11-10T12:08:09.722Z,95637.11
2018-11-10T12:10:38.105Z,95640.97
2018-11-10T12:13:06.534Z,95638.17
2018-11-10T12:15:34.832Z,95626.05
2018-11-10T12:18:03.214Z,95624.08
2018-11-10T12:20:31.704Z,95626.08
2018-11-10T12:23:00.517Z,95632.40
2018-11-10T12:25:34.656Z,95624.36
2018-11-10T12:28:02.957Z,95624.96
2018-11-10T12:30:31.247Z,95624.50
2018-11-10T12:32:59.582Z,95628.36
2018-11-10T12:35:27.866Z,95618.70
2018-11-10T12:37:56.242Z,95613.33
2018-11-10T12:40:25.442Z,95617.19
2018-11-10T12:42:53.929Z,95619.92
2018-11-10T12:45:22.203Z,95625.05
2018-11-10T12:47:50.521Z,95615.71
2018-11-10T12:50:18.858Z,95615.25
2018-11-10T12:52:47.158Z,95615.48
2018-11-10T12:55:16.263Z,95619.28
2018-11-10T12:57:45.678Z,95614.03
2018-11-10T13:00:15.366Z,95618.91
2018-11-10T13:02:44.174Z,95616.84
2018-11-10T13:05:12.943Z,95612.91
2018-11-10T13:07:42.846Z,95614.12
2018-11-10T13:10:11.762Z,95610.39
2018-11-10T13:12:40.688Z,95612.78
2018-11-10T13:15:09.302Z,95608.47
2018-11-10T13:17:38.997Z,95611.73
2018-11-10T13:20:09.529Z,95608.41
2018-11-10T13:22:38.018Z,95599.42
2018-11-10T13:25:07.055Z,95601.13
2018-11-10T13:27:35.362Z,95607.89
2018-11-10T13:30:04.318Z,95606.09
2018-11-10T13:32:32.691Z,95607.74
2018-11-10T13:35:00.978Z,95605.88
2018-11-10T13:37:29.307Z,95601.07
2018-11-10T13:39:57.700Z,95601.13
2018-11-10T13:42:26.291Z,95598.25
2018-11-10T13:44:54.621Z,95599.80
2018-11-10T13:47:23.047Z,95600.82
2018-11-10T13:49:51.334Z,95597.94
2018-11-10T13:52:19.906Z,95596.91
2018-11-10T13:54:48.059Z,95597.56
2018-11-10T13:57:16.335Z,95596.47
2018-11-10T13:59:44.698Z,95598.62
2018-11-10T14:02:13.110Z,95596.16
2018-11-10T14:04:41.537Z,95597.72
2018-11-10T14:07:09.797Z,95600.84
2018-11-10T14:09:38.142Z,95604.75
2018-11-10T14:12:06.510Z,95602.92
2018-11-10T14:14:34.838Z,95602.68
2018-11-10T14:17:03.462Z,95608.17
2018-11-10T14:19:32.230Z,95605.51
2018-11-10T14:22:00.523Z,95601.66
2018-11-10T14:24:28.853Z,95604.75
2018-11-10T14:26:57.287Z,95602.83
2018-11-10T14:29:25.655Z,95607.79
2018-11-10T14:31:54.354Z,95605.95
2018-11-10T14:34:22.728Z,95610.03
2018-11-10T14:36:51.084Z,95610.09
2018-11-10T14:39:19.522Z,95611.99
2018-11-10T14:41:47.944Z,95614.20
2018-11-10T14:44:16.412Z,95620.64
2018-11-10T14:46:45.382Z,95614.54
2018-11-10T14:49:14.194Z,95619.91
2018-11-10T14:51:42.478Z,95620.58
2018-11-10T14:54:10.803Z,95619.59
2018-11-10T14:56:39.151Z,95621.70
2018-11-10T14:59:07.467Z,95615.38
2018-11-10T15:01:35.839Z,95616.04
2018-11-10T15:04:04.322Z,95623.36
2018-11-10T15:06:32.898Z,95618.27
2018-11-10T15:09:01.379Z,95620.27
2018-11-10T15:11:29.737Z,95625.41
2018-11-10T15:13:57.962Z,95634.05
2018-11-10T15:16:26.307Z,95641.78
2018-11-10T15:18:54.668Z,95637.00
2018-11-10T15:21:23.040Z,95639.39
2018-11-10T15:23:51.342Z,95639.95
2018-11-10T15:26:19.805Z,95648.40
2018-11-10T15:28:48.646Z,95647.09
2018-11-10T15:31:17.006Z,95643.83
2018-11-10T15:33:45.354Z,95648.37
2018-11-10T15:36:14.326Z,95645.52
2018-11-10T15:38:42.814Z,95645.31
2018-11-10T15:41:11.236Z,95642.97
2018-11-10T15:43:40.314Z,95647.80
2018-11-10T15:46:09.169Z,95649.23
2018-11-10T15:48:37.595Z,95655.20
2018-11-10T15:51:06.127Z,95657.03
2018-11-10T15:53:34.441Z,95657.77
2018-11-10T15:56:02.735Z,95651.23
2018-11-10T15:58:31.051Z,95658.29
2018-11-10T16:00:59.503Z,95659.81
2018-11-10T16:03:27.827Z,95666.79
2018-11-10T16:05:56.111Z,95662.52
2018-11-10T16:08:24.518Z,95666.27
2018-11-10T16:10:52.861Z,95669.44
2018-11-10T16:13:21.245Z,95665.84
2018-11-10T16:15:49.662Z,95668.41
2018-11-10T16:18:18.571Z,95666.45
2018-11-10T16:20:46.949Z,95674.58
2018-11-10T16:23:15.474Z,95679.27
2018-11-10T16:25:43.854Z,95675.70
2018-11-10T16:28:12.164Z,95683.91
2018-11-10T16:30:40.565Z,95681.91
2018-11-10T16:33:08.879Z,95676.23
2018-11-10T16:35:37.163Z,95674.67
2018-11-10T16:38:05.896Z,95678.55
2018-11-10T16:40:34.224Z,95678.46
2018-11-10T16:43:02.914Z,95675.52
2018-11-10T16:45:31.317Z,95686.53
2018-11-10T16:47:59.757Z,95692.41
2018-11-10T16:50:28.165Z,95691.53
2018-11-10T16:52:56.524Z,95684.55
2018-11-10T16:55:25.003Z,95688.01
2018-11-10T16:57:53.484Z,95690.50
2018-11-10T17:00:21.884Z,95687.48
2018-11-10T17:02:50.574Z,95691.42
2018-11-10T17:05:18.868Z,95692.14
2018-11-10T17:07:47.229Z,95692.70
2018-11-10T17:10:16.829Z,95689.35
2018-11-10T17:12:45.694Z,95691.63
2018-11-10T17:15:14.241Z,95697.96
2018-11-10T17:17:42.564Z,95692.27
2018-11-10T17:20:13.093Z,95693.03
2018-11-10T17:22:41.764Z,95693.77
2018-11-10T17:25:10.699Z,95696.86
2018-11-10T17:27:39.423Z,95697.16
2018-11-10T17:30:10.944Z,95702.42
2018-11-10T17:32:39.343Z,95701.16
2018-11-10T17:35:08.497Z,95702.00
2018-11-10T17:37:37.625Z,95700.30
2018-11-10T17:40:07.229Z,95693.42
2018-11-10T17:42:36.175Z,95695.95
2018-11-10T17:45:04.708Z,95702.52
2018-11-10T17:47:33.079Z,95699.29
2018-11-10T17:50:01.507Z,95695.80
2018-11-10T17:52:30.747Z,95699.05
2018-11-10T17:54:59.731Z,95691.41
2018-11-10T17:57:34.583Z,95688.38
2018-11-10T18:00:03.415Z,95690.14
2018-11-10T18:02:31.794Z,95687.55
2018-11-10T18:05:00.221Z,95682.20
2018-11-10T18:07:28.726Z,95677.77
2018-11-10T18:09:57.053Z,95675.87
2018-11-10T18:12:25.377Z,95676.92
2018-11-10T18:14:53.965Z,95677.94
2018-11-10T18:17:22.286Z,95677.13
2018-11-10T18:19:50.887Z,95679.09
2018-11-10T18:22:19.241Z,95680.59
2018-11-10T18:24:47.539Z,95674.66
2018-11-10T18:27:15.865Z,95676.19
2018-11-10T18:29:44.443Z,95678.66
2018-11-10T18:32:12.766Z,95671.36
2018-11-10T18:34:41.445Z,95676.81
2018-11-10T18:37:16.249Z,95672.16
2018-11-10T18:39:44.719Z,95667.61
2018-11-10T18:42:13.002Z,95669.27
2018-11-10T18:44:41.486Z,95672.23
2018-11-10T18:47:10.141Z,95666.58
2018-11-10T18:49:38.469Z,95668.30
2018-11-10T18:52:06.940Z,95668.63
2018-11-10T18:54:35.286Z,95663.58
2018-11-10T18:57:03.780Z,95664.91
2018-11-10T18:59:32.103Z,95664.11
2018-11-10T19:02:00.513Z,95666.80
2018-11-10T19:04:28.864Z,95662.47
2018-11-10T19:06:57.182Z,95658.88
2018-11-10T19:09:25.486Z,95662.64
2018-11-10T19:11:53.878Z,95655.36
2018-11-10T19:14:22.270Z,95653.17
2018-11-10T19:16:50.989Z,95661.78
2018-11-10T19:19:19.318Z,95658.90
2018-11-10T19:21:47.878Z,95662.69
2018-11-10T19:24:16.230Z,95663.33
2018-11-10T19:26:44.534Z,95660.20
2018-11-10T19:29:12.954Z,95664.42
2018-11-10T19:31:41.347Z,95667.36
2018-11-10T19:34:09.707Z,95666.96
2018-11-10T19:36:38.043Z,95664.57
2018-11-10T19:39:08.650Z,95672.16
2018-11-10T19:41:37.563Z,95676.11
2018-11-10T19:44:06.505Z,95671.56
2018-11-10T19:46:34.886Z,95680.44
2018-11-10T19:49:03.241Z,95676.93
2018-11-10T19:51:31.832Z,95685.50
2018-11-10T19:53:59.938Z,95692.66
2018-11-10T19:56:28.265Z,95691.69
2018-11-10T19:58:56.637Z,95696.03
2018-11-10T20:01:25.086Z,95700.17
2018-11-10T20:03:53.377Z,95702.34
2018-11-10T20:06:21.684Z,95705.72
2018-11-10T20:08:50.094Z,95711.98
2018-11-10T20:11:18.442Z,95715.73
2018-11-10T20:13:46.859Z,95715.56
2018-11-10T20:16:15.738Z,95723.66
2018-11-10T20:18:44.043Z,95722.98
2018-11-10T20:21:12.347Z,95736.83
2018-11-10T20:23:40.684Z,95726.69
2018-11-10T20:26:08.959Z,95741.02
2018-11-10T20:28:37.295Z,95739.09
2018-11-10T20:31:05.708Z,95742.38
2018-11-10T20:33:34.054Z,95745.81
2018-11-10T20:36:02.526Z,95743.61
2018-11-10T20:38:31.048Z,95746.92
2018-11-10T20:40:59.385Z,95745.19
2018-11-10T20:43:27.881Z,95743.64
2018-11-10T20:45:56.211Z,95747.14
2018-11-10T20:48:24.501Z,95761.42
2018-11-10T20:50:52.925Z,95756.83
2018-11-10T20:53:21.989Z,95754.56
2018-11-10T20:55:50.473Z,95757.16
2018-11-10T20:58:18.925Z,95760.48
2018-11-10T21:00:47.361Z,95757.50
2018-11-10T21:03:15.685Z,95755.20
2018-11-10T21:05:44.027Z,95756.98
2018-11-10T21:08:13.227Z,95762.41
2018-11-10T21:10:41.586Z,95760.78
2018-11-10T21:13:09.957Z,95759.08
2018-11-10T21:15:38.547Z,95759.12
2018-11-10T21:18:06.999Z,95754.86
2018-11-10T21:20:35.285Z,95760.52
2018-11-10T21:23:03.727Z,95762.73
2018-11-10T21:25:32.053Z,95760.87
2018-11-10T21:28:00.325Z,95763.00
2018-11-10T21:30:28.917Z,95768.45
2018-11-10T21:32:57.306Z,95763.98
2018-11-10T21:35:25.781Z,95768.41
2018-11-10T21:37:54.082Z,95766.49
2018-11-10T21:40:23.277Z,95769.81
2018-11-10T21:42:51.630Z,95771.05
2018-11-10T21:45:20.040Z,95767.05
2018-11-10T21:47:55.026Z,95761.22
2018-11-10T21:50:23.458Z,95762.32
2018-11-10T21:52:51.785Z,95771.02
2018-11-10T21:55:20.653Z,95766.53
2018-11-10T21:57:49.518Z,95767.55
2018-11-10T22:00:19.821Z,95771.99
2018-11-10T22:02:48.446Z,95769.09
2018-11-10T22:05:17.162Z,95761.55
2018-11-10T22:07:46.067Z,95764.50
2018-11-10T22:10:15.740Z,95767.94
2018-11-10T22:12:44.470Z,95769.05
2018-11-10T22:15:16.281Z,95775.79
2018-11-10T22:17:45.245Z,95774.42
2018-11-10T22:20:14.926Z,95770.23
2018-11-10T22:22:43.411Z,95762.80
2018-11-10T22:25:12.625Z,95762.12
2018-11-10T22:27:42.421Z,95769.06
2018-11-10T22:30:18.693Z,95771.33
2018-11-10T22:32:47.763Z,95773.84
2018-11-10T22:35:16.929Z,95778.62
2018-11-10T22:37:45.201Z,95777.13
2018-11-10T22:40:14.785Z,95770.00
2018-11-10T22:42:43.599Z,95767.36
2018-11-10T22:45:13.509Z,95765.53
2018-11-10T22:47:42.302Z,95769.02
2018-11-10T22:50:13.509Z,95761.21
2018-11-10T22:52:42.080Z,95757.24
2018-11-10T22:55:11.625Z,95755.11
2018-11-10T22:57:40.183Z,95758.44
2018-11-10T23:00:14.265Z,95752.17
2018-11-10T23:02:43.586Z,95747.77
2018-11-10T23:05:12.056Z,95748.45
2018-11-10T23:07:40.618Z,95752.12
2018-11-10T23:10:09.097Z,95742.44
2018-11-10T23:12:38.170Z,95745.26
2018-11-10T23:15:06.630Z,95739.11
2018-11-10T23:17:34.946Z,95744.19
2018-11-10T23:20:03.366Z,95741.76
2018-11-10T23:22:31.742Z,95747.09
2018-11-10T23:25:00.060Z,95745.60
2018-11-10T23:27:28.350Z,95747.62
2018-11-10T23:29:56.771Z,95737.91
2018-11-10T23:32:25.122Z,95733.30
2018-11-10T23:34:53.499Z,95732.14
2018-11-10T23:37:21.782Z,95742.33
2018-11-10T23:39:50.175Z,95745.60
2018-11-10T23:42:18.467Z,95741.85
2018-11-10T23:44:46.768Z,95737.42
2018-11-10T23:47:15.079Z,95726.64
2018-11-10T23:49:43.358Z,95722.25
2018-11-10T23:52:11.699Z,95729.66
2018-11-10T23:54:40.111Z,95730.81
2018-11-10T23:57:08.511Z,95725.53
2018-11-10T23:59:36.893Z,95734.02
